createdAt,value
2022-08-05T00:00:20.176Z,0
2022-08-05T00:01:27.962Z,0
2022-08-05T00:02:20.235Z,0
2022-08-05T00:03:20.175Z,0
2022-08-05T00:04:20.191Z,0
2022-08-05T00:05:27.485Z,0
2022-08-05T00:06:29.170Z,0
2022-08-05T00:07:27.455Z,0
2022-08-05T00:08:35.024Z,0
2022-08-05T00:09:20.238Z,0
2022-08-05T00:10:20.170Z,0
2022-08-05T00:11:20.550Z,0
2022-08-05T00:12:20.164Z,0
2022-08-05T00:13:20.169Z,0
2022-08-05T00:14:20.188Z,0
2022-08-05T00:15:55.741Z,0
2022-08-05T00:16:20.185Z,0
2022-08-05T00:17:20.305Z,0
2022-08-05T00:18:22.672Z,0
2022-08-05T00:19:21.590Z,0
2022-08-05T00:20:20.519Z,0
2022-08-05T00:21:20.171Z,0
2022-08-05T00:22:20.166Z,0
2022-08-05T00:23:44.617Z,0
2022-08-05T00:24:24.822Z,0
2022-08-05T00:25:20.173Z,0
2022-08-05T00:26:20.167Z,0
2022-08-05T00:27:20.167Z,0
2022-08-05T00:28:29.398Z,0
2022-08-05T00:29:22.680Z,0
2022-08-05T00:30:20.165Z,0
2022-08-05T00:31:54.378Z,0
2022-08-05T00:32:20.165Z,0
2022-08-05T00:34:53.546Z,0
2022-08-05T00:34:54.216Z,0
2022-08-05T00:35:20.292Z,0
2022-08-05T00:37:09.928Z,0
2022-08-05T00:37:20.335Z,0
2022-08-05T00:38:20.167Z,0
2022-08-05T00:39:20.245Z,0
2022-08-05T00:40:27.100Z,0
2022-08-05T00:41:20.164Z,0
2022-08-05T00:42:31.946Z,0
2022-08-05T00:43:20.165Z,0
2022-08-05T00:44:20.879Z,0
2022-08-05T00:45:28.177Z,0
2022-08-05T00:46:20.179Z,0
2022-08-05T00:47:20.165Z,0
2022-08-05T00:48:27.444Z,0
2022-08-05T00:52:28.317Z,0
2022-08-05T00:54:00.681Z,0
2022-08-05T00:54:20.172Z,0
2022-08-05T00:55:20.188Z,0
2022-08-05T00:56:22.692Z,0
2022-08-05T00:57:21.286Z,0
2022-08-05T00:58:20.182Z,0
2022-08-05T00:59:20.176Z,0
2022-08-05T01:00:20.183Z,0
2022-08-05T01:01:42.877Z,0
2022-08-05T01:02:20.181Z,0
2022-08-05T01:03:22.756Z,0
2022-08-05T01:04:27.013Z,0
2022-08-05T01:05:20.204Z,0
2022-08-05T01:06:20.183Z,0
2022-08-05T01:07:20.189Z,0
2022-08-05T01:08:40.698Z,0
2022-08-05T01:09:20.382Z,0
2022-08-05T01:10:20.181Z,0
2022-08-05T01:11:22.074Z,0
2022-08-05T01:12:20.167Z,0
2022-08-05T01:13:22.406Z,0
2022-08-05T01:14:27.948Z,0
2022-08-05T01:15:36.041Z,0
2022-08-05T01:16:21.075Z,0
2022-08-05T01:17:20.393Z,0
2022-08-05T01:18:20.171Z,0
2022-08-05T01:19:20.180Z,0
2022-08-05T01:20:20.182Z,0
2022-08-05T01:21:22.729Z,0
2022-08-05T01:22:24.291Z,0
2022-08-05T01:23:22.834Z,0
2022-08-05T01:24:20.174Z,0
2022-08-05T01:25:20.185Z,0
2022-08-05T01:26:20.175Z,0
2022-08-05T01:27:22.237Z,0
2022-08-05T01:28:20.170Z,0
2022-08-05T01:29:22.949Z,0
2022-08-05T01:30:20.185Z,0
2022-08-05T01:31:20.186Z,0
2022-08-05T01:32:20.189Z,0
2022-08-05T01:33:20.176Z,0
2022-08-05T01:34:20.175Z,0
2022-08-05T01:35:51.043Z,0
2022-08-05T01:36:20.979Z,0
2022-08-05T01:37:25.049Z,0
2022-08-05T01:38:24.680Z,0
2022-08-05T01:39:46.500Z,0
2022-08-05T01:40:20.193Z,0
2022-08-05T01:41:21.614Z,0
2022-08-05T01:42:20.180Z,0
2022-08-05T01:43:22.221Z,0
2022-08-05T01:44:20.172Z,0
2022-08-05T01:45:20.211Z,0
2022-08-05T01:46:42.932Z,0
2022-08-05T01:47:20.210Z,0
2022-08-05T01:48:20.185Z,0
2022-08-05T01:49:23.365Z,0
2022-08-05T01:50:20.194Z,0
2022-08-05T01:51:20.185Z,0
2022-08-05T01:52:20.175Z,0
2022-08-05T01:53:54.880Z,0
2022-08-05T01:54:20.173Z,0
2022-08-05T01:55:20.187Z,0
2022-08-05T01:58:12.462Z,0
2022-08-05T01:58:12.769Z,0
2022-08-05T01:58:40.231Z,0
2022-08-05T01:59:20.182Z,0
2022-08-05T02:00:20.207Z,0
2022-08-05T02:01:25.336Z,0
2022-08-05T02:02:20.318Z,0
2022-08-05T02:03:29.123Z,0
2022-08-05T02:04:20.172Z,0
2022-08-05T02:05:23.503Z,0
2022-08-05T02:06:37.464Z,0
2022-08-05T02:07:22.091Z,0
2022-08-05T02:08:29.664Z,0
2022-08-05T02:09:20.549Z,0
2022-08-05T02:10:20.196Z,0
2022-08-05T02:11:23.623Z,0
2022-08-05T02:12:20.175Z,0
2022-08-05T02:13:20.180Z,0
2022-08-05T02:14:20.173Z,0
2022-08-05T02:15:20.178Z,0
2022-08-05T02:16:22.231Z,0
2022-08-05T02:18:28.652Z,0
2022-08-05T02:18:30.925Z,0
2022-08-05T02:19:20.173Z,0
2022-08-05T02:20:20.749Z,0
2022-08-05T02:21:20.169Z,0
2022-08-05T02:22:26.425Z,0
2022-08-05T02:23:20.172Z,0
2022-08-05T02:24:23.143Z,0
2022-08-05T02:25:20.182Z,0
2022-08-05T02:26:20.168Z,0
2022-08-05T02:27:20.208Z,0
2022-08-05T02:28:28.491Z,0
2022-08-05T02:29:21.563Z,0
2022-08-05T02:30:20.190Z,0
2022-08-05T02:31:21.063Z,0
2022-08-05T02:32:24.079Z,0
2022-08-05T02:33:35.661Z,0
2022-08-05T02:34:20.194Z,0
2022-08-05T02:35:27.752Z,0
2022-08-05T02:36:20.192Z,0
2022-08-05T02:37:20.226Z,0
2022-08-05T02:38:20.164Z,0
2022-08-05T02:39:21.415Z,0
2022-08-05T02:40:20.174Z,0
2022-08-05T02:41:20.164Z,0
2022-08-05T02:42:22.506Z,0
2022-08-05T02:43:20.171Z,0
2022-08-05T02:44:20.146Z,0
2022-08-05T02:45:20.178Z,0
2022-08-05T02:46:20.204Z,0
2022-08-05T02:47:20.177Z,0
2022-08-05T02:48:20.181Z,0
2022-08-05T02:49:20.178Z,0
2022-08-05T02:50:20.186Z,0
2022-08-05T02:51:20.184Z,0
2022-08-05T02:52:29.290Z,0
2022-08-05T02:53:20.169Z,0
2022-08-05T02:54:34.890Z,0
2022-08-05T02:55:52.155Z,0
2022-08-05T02:56:20.167Z,0
2022-08-05T02:58:10.467Z,0
2022-08-05T02:58:21.280Z,0
2022-08-05T02:59:20.165Z,0
2022-08-05T03:00:20.191Z,0
2022-08-05T03:01:20.243Z,0
2022-08-05T03:02:20.169Z,0
2022-08-05T03:03:20.184Z,0
2022-08-05T03:04:20.170Z,0
2022-08-05T03:05:21.944Z,0
2022-08-05T03:06:56.226Z,0
2022-08-05T03:07:40.719Z,0
2022-08-05T03:08:29.675Z,0
2022-08-05T03:09:33.141Z,0
2022-08-05T03:10:24.419Z,0
2022-08-05T03:11:57.184Z,0
2022-08-05T03:12:20.174Z,0
2022-08-05T03:13:20.166Z,0
2022-08-05T03:14:20.168Z,0
2022-08-05T03:15:20.180Z,0
2022-08-05T03:16:20.182Z,0
2022-08-05T03:17:20.370Z,0
2022-08-05T03:18:29.807Z,0
2022-08-05T03:19:33.810Z,0
2022-08-05T03:20:20.176Z,0.01
2022-08-05T03:21:20.169Z,0.01
2022-08-05T03:22:32.579Z,0.01
2022-08-05T03:23:20.175Z,0.01
2022-08-05T03:24:26.826Z,0.01
2022-08-05T03:25:33.115Z,0.01
2022-08-05T03:26:31.123Z,0.01
2022-08-05T03:27:20.180Z,0.01
2022-08-05T03:28:20.169Z,0.01
2022-08-05T03:29:20.172Z,0.02
2022-08-05T03:30:20.870Z,0.02
2022-08-05T03:31:56.637Z,0.02
2022-08-05T03:32:20.175Z,0.02
2022-08-05T03:33:20.167Z,0.02
2022-08-05T03:34:20.178Z,0.02
2022-08-05T03:35:20.182Z,0.03
2022-08-05T03:36:30.433Z,0.03
2022-08-05T03:37:20.186Z,0.03
2022-08-05T03:38:32.788Z,0.03
2022-08-05T03:39:27.122Z,0.04
2022-08-05T03:40:24.600Z,0.04
2022-08-05T03:41:20.169Z,0.04
2022-08-05T03:42:20.175Z,0.04
2022-08-05T03:44:08.881Z,0.05
2022-08-05T03:44:20.263Z,0.05
2022-08-05T03:45:22.683Z,0.05
2022-08-05T03:46:20.189Z,0.06
2022-08-05T03:47:20.179Z,0.06
2022-08-05T03:48:22.714Z,0.06
2022-08-05T03:49:20.172Z,0.06
2022-08-05T03:50:20.202Z,0.07
2022-08-05T03:52:36.557Z,0.07
2022-08-05T03:52:48.460Z,0.08
2022-08-05T03:55:00.509Z,0.08
2022-08-05T03:55:50.744Z,0.09
2022-08-05T03:56:05.238Z,0.09
2022-08-05T03:56:30.595Z,0.09
2022-08-05T03:57:20.177Z,0.1
2022-08-05T03:58:20.167Z,0.1
2022-08-05T03:59:20.632Z,0.1
2022-08-05T04:00:20.191Z,0.11
2022-08-05T04:01:20.838Z,0.11
2022-08-05T04:02:37.589Z,0.12
2022-08-05T04:03:28.348Z,0.12
2022-08-05T04:04:21.311Z,0.13
2022-08-05T04:05:20.188Z,0.13
2022-08-05T04:06:20.505Z,0.14
2022-08-05T04:07:20.174Z,0.14
2022-08-05T04:08:35.926Z,0.15
2022-08-05T04:09:25.989Z,0.15
2022-08-05T04:10:20.192Z,0.16
2022-08-05T04:11:20.178Z,0.16
2022-08-05T04:12:24.518Z,0.17
2022-08-05T04:13:20.180Z,0.17
2022-08-05T04:14:30.265Z,0.18
2022-08-05T04:15:20.197Z,0.18
2022-08-05T04:16:24.903Z,0.19
2022-08-05T04:17:20.171Z,0.19
2022-08-05T04:18:22.452Z,0.2
2022-08-05T04:19:20.168Z,0.2
2022-08-05T04:20:20.179Z,0.21
2022-08-05T04:22:09.220Z,0.21
2022-08-05T04:22:20.443Z,0.22
2022-08-05T04:23:20.173Z,0.22
2022-08-05T04:24:22.653Z,0.22
2022-08-05T04:25:20.198Z,0.23
2022-08-05T04:26:20.175Z,0.23
2022-08-05T04:27:33.156Z,0.22
2022-08-05T04:28:20.178Z,0.23
2022-08-05T04:29:20.179Z,0.23
2022-08-05T04:30:20.199Z,0.23
2022-08-05T04:31:20.197Z,0.23
2022-08-05T04:32:31.189Z,0.23
2022-08-05T04:33:20.574Z,0.23
2022-08-05T04:34:33.117Z,0.24
2022-08-05T04:35:20.236Z,0.24
2022-08-05T04:36:49.903Z,0.24
2022-08-05T04:37:20.178Z,0.24
2022-08-05T04:38:20.178Z,0.24
2022-08-05T04:39:20.225Z,0.24
2022-08-05T04:40:20.190Z,0.24
2022-08-05T04:41:20.195Z,0.24
2022-08-05T04:42:20.181Z,0.24
2022-08-05T04:43:22.102Z,0.24
2022-08-05T04:44:21.273Z,0.24
2022-08-05T04:45:22.895Z,0.24
2022-08-05T04:46:28.269Z,0.25
2022-08-05T04:47:20.473Z,0.24
2022-08-05T04:48:27.601Z,0.24
2022-08-05T04:49:24.605Z,0.24
2022-08-05T04:50:34.426Z,0.24
2022-08-05T04:51:20.184Z,0.23
2022-08-05T04:52:20.178Z,0.22
2022-08-05T04:53:20.173Z,0.21
2022-08-05T04:54:20.172Z,0.22
2022-08-05T04:55:34.023Z,0.22
2022-08-05T04:56:32.748Z,0.23
2022-08-05T04:57:20.178Z,0.23
2022-08-05T04:58:21.732Z,0.23
2022-08-05T04:59:23.149Z,0.21
2022-08-05T05:00:23.639Z,0.22
2022-08-05T05:02:06.786Z,0.23
2022-08-05T05:02:41.211Z,0.25
2022-08-05T05:03:20.343Z,0.27
2022-08-05T05:04:20.179Z,0.29
2022-08-05T05:05:28.280Z,0.31
2022-08-05T05:06:38.766Z,0.31
2022-08-05T05:07:23.853Z,0.32
2022-08-05T05:08:26.586Z,0.32
2022-08-05T05:09:20.179Z,0.32
2022-08-05T05:10:20.188Z,0.33
2022-08-05T05:11:20.183Z,0.33
2022-08-05T05:12:20.192Z,0.33
2022-08-05T05:13:20.186Z,0.34
2022-08-05T05:14:27.909Z,0.34
2022-08-05T05:15:56.546Z,0.35
2022-08-05T05:16:20.204Z,0.35
2022-08-05T05:17:24.266Z,0.36
2022-08-05T05:18:28.309Z,0.36
2022-08-05T05:19:23.594Z,0.37
2022-08-05T05:20:20.491Z,0.37
2022-08-05T05:21:20.180Z,0.38
2022-08-05T05:22:22.920Z,0.38
2022-08-05T05:23:20.261Z,0.39
2022-08-05T05:24:20.173Z,0.39
2022-08-05T05:25:20.177Z,0.4
2022-08-05T05:26:28.744Z,0.4
2022-08-05T05:27:20.169Z,0.4
2022-08-05T05:28:20.174Z,0.41
2022-08-05T05:29:20.176Z,0.41
2022-08-05T05:30:30.737Z,0.41
2022-08-05T05:31:20.197Z,0.41
2022-08-05T05:32:20.175Z,0.42
2022-08-05T05:33:23.430Z,0.42
2022-08-05T05:34:26.589Z,0.42
2022-08-05T05:35:20.202Z,0.42
2022-08-05T05:36:20.177Z,0.42
2022-08-05T05:37:20.180Z,0.42
2022-08-05T05:38:22.497Z,0.42
2022-08-05T05:39:20.260Z,0.42
2022-08-05T05:40:20.194Z,0.42
2022-08-05T05:41:20.175Z,0.42
2022-08-05T05:42:20.825Z,0.42
2022-08-05T05:43:22.357Z,0.41
2022-08-05T05:44:36.647Z,0.41
2022-08-05T05:45:20.191Z,0.44
2022-08-05T05:46:20.196Z,0.44
2022-08-05T05:47:21.701Z,0.45
2022-08-05T05:48:20.174Z,0.45
2022-08-05T05:49:22.988Z,0.45
2022-08-05T05:50:20.193Z,0.45
2022-08-05T05:51:20.175Z,0.45
2022-08-05T05:52:28.646Z,0.45
2022-08-05T05:53:21.618Z,0.45
2022-08-05T05:54:20.173Z,0.45
2022-08-05T05:55:20.196Z,0.44
2022-08-05T05:56:26.200Z,0.44
2022-08-05T05:57:20.342Z,0.43
2022-08-05T05:58:20.181Z,0.43
2022-08-05T05:59:20.174Z,0.43
2022-08-05T06:00:20.193Z,0.43
2022-08-05T06:01:23.432Z,0.44
2022-08-05T06:02:32.621Z,0.44
2022-08-05T06:03:40.589Z,0.43
2022-08-05T06:04:20.242Z,0.45
2022-08-05T06:05:20.185Z,0.45
2022-08-05T06:06:20.173Z,0.46
2022-08-05T06:07:22.446Z,0.45
2022-08-05T06:08:32.264Z,0.46
2022-08-05T06:09:35.351Z,0.46
2022-08-05T06:10:20.182Z,0.47
2022-08-05T06:11:20.175Z,0.47
2022-08-05T06:12:20.190Z,0.47
2022-08-05T06:13:20.171Z,0.47
2022-08-05T06:14:20.173Z,0.48
2022-08-05T06:15:23.950Z,0.48
2022-08-05T06:16:28.473Z,0.48
2022-08-05T06:17:22.623Z,0.49
2022-08-05T06:18:20.175Z,0.49
2022-08-05T06:19:34.263Z,0.49
2022-08-05T06:20:21.693Z,0.49
2022-08-05T06:21:20.162Z,0.5
2022-08-05T06:22:20.183Z,0.5
2022-08-05T06:23:20.171Z,0.5
2022-08-05T06:24:25.865Z,0.51
2022-08-05T06:25:24.947Z,0.51
2022-08-05T06:26:21.231Z,0.52
2022-08-05T06:28:11.537Z,0.52
2022-08-05T06:28:21.602Z,0.52
2022-08-05T06:29:26.454Z,0.53
2022-08-05T06:30:21.405Z,0.53
2022-08-05T06:31:22.124Z,0.54
2022-08-05T06:32:26.302Z,0.56
2022-08-05T06:34:02.972Z,0.57
2022-08-05T06:34:20.345Z,0.6
2022-08-05T06:36:04.134Z,0.64
2022-08-05T06:36:20.173Z,0.77
2022-08-05T06:37:55.773Z,1.51
2022-08-05T06:38:36.025Z,2.57
2022-08-05T06:39:20.190Z,3.49
2022-08-05T06:40:21.072Z,3.81
2022-08-05T06:41:20.172Z,3.63
2022-08-05T06:42:20.175Z,4.01
2022-08-05T06:43:57.782Z,4.13
2022-08-05T06:44:22.073Z,4.28
2022-08-05T06:45:20.854Z,4.3
2022-08-05T06:46:20.185Z,4.32
2022-08-05T06:48:12.468Z,4.21
2022-08-05T06:48:53.142Z,4.04
2022-08-05T06:49:21.350Z,4.04
2022-08-05T06:50:20.191Z,2.86
2022-08-05T06:51:25.295Z,2.23
2022-08-05T06:52:37.290Z,2.07
2022-08-05T06:53:27.834Z,2.03
2022-08-05T06:54:20.165Z,2.02
2022-08-05T06:55:20.191Z,2.01
2022-08-05T06:56:26.349Z,1.99
2022-08-05T06:57:57.403Z,2.12
2022-08-05T06:58:29.606Z,2.9
2022-08-05T06:59:20.168Z,3.61
2022-08-05T07:00:22.170Z,4.18
2022-08-05T07:01:20.910Z,4.49
2022-08-05T07:02:22.899Z,4.64
2022-08-05T07:03:20.152Z,4.8
2022-08-05T07:04:20.159Z,4.77
2022-08-05T07:05:24.625Z,4.95
2022-08-05T07:06:20.643Z,4.42
2022-08-05T07:07:24.105Z,4.63
2022-08-05T07:08:20.171Z,4.79
2022-08-05T07:09:20.170Z,4.92
2022-08-05T07:10:20.190Z,5.01
2022-08-05T07:11:22.282Z,5.1
2022-08-05T07:12:20.182Z,4.96
2022-08-05T07:13:46.377Z,5.02
2022-08-05T07:14:30.011Z,5.37
2022-08-05T07:15:34.728Z,5.56
2022-08-05T07:17:57.311Z,5.49
2022-08-05T07:17:59.793Z,5.56
2022-08-05T07:18:27.241Z,5.63
2022-08-05T07:19:44.297Z,5.37
2022-08-05T07:20:36.300Z,5.59
2022-08-05T07:21:25.879Z,5.6
2022-08-05T07:22:20.189Z,5.56
2022-08-05T07:23:26.508Z,5.41
2022-08-05T07:24:20.187Z,5.64
2022-08-05T07:25:53.976Z,5.39
2022-08-05T07:26:22.851Z,5.27
2022-08-05T07:27:20.172Z,6.04
2022-08-05T07:28:20.177Z,6.46
2022-08-05T07:29:20.191Z,6.62
2022-08-05T07:30:27.816Z,6.47
2022-08-05T07:31:20.188Z,5.69
2022-08-05T07:32:24.277Z,5.26
2022-08-05T07:33:20.178Z,4.84
2022-08-05T07:34:21.269Z,4.72
2022-08-05T07:36:01.877Z,4.87
2022-08-05T07:36:21.687Z,4.51
2022-08-05T07:37:20.195Z,4.88
2022-08-05T07:38:32.863Z,6.62
2022-08-05T07:39:50.404Z,6.97
2022-08-05T07:40:32.125Z,6.14
2022-08-05T07:42:14.288Z,5.66
2022-08-05T07:42:31.704Z,5.88
2022-08-05T07:43:21.160Z,5.6
2022-08-05T07:44:20.235Z,5.03
2022-08-05T07:45:21.803Z,4.38
2022-08-05T07:46:25.369Z,4.12
2022-08-05T07:47:20.176Z,4.07
2022-08-05T07:49:00.947Z,4.09
2022-08-05T07:49:20.172Z,4.09
2022-08-05T07:50:23.674Z,4.26
2022-08-05T07:51:23.824Z,3.43
2022-08-05T07:52:20.169Z,2.65
2022-08-05T07:53:20.181Z,2.6
2022-08-05T07:54:20.208Z,2.71
2022-08-05T07:56:04.809Z,2.71
2022-08-05T07:57:02.932Z,2.96
2022-08-05T07:57:52.342Z,3.59
2022-08-05T07:58:58.685Z,3.46
2022-08-05T07:59:38.908Z,3.45
2022-08-05T08:00:25.756Z,3.22
2022-08-05T08:01:25.833Z,3.92
2022-08-05T08:02:26.819Z,3.83
2022-08-05T08:03:25.671Z,3.95
2022-08-05T08:04:37.843Z,4.04
2022-08-05T08:05:26.318Z,4.04
2022-08-05T08:06:28.262Z,4.07
2022-08-05T08:07:28.445Z,4.14
2022-08-05T08:08:25.981Z,4.18
2022-08-05T08:09:25.647Z,4.19
2022-08-05T08:10:25.661Z,4.19
2022-08-05T08:11:27.569Z,4.24
2022-08-05T08:12:33.541Z,4.35
2022-08-05T08:13:29.087Z,4.47
2022-08-05T08:14:25.646Z,4.47
2022-08-05T08:15:28.082Z,4.44
2022-08-05T08:16:50.002Z,4.38
2022-08-05T08:17:27.921Z,4.26
2022-08-05T08:18:25.609Z,4.45
2022-08-05T08:20:21.888Z,4.49
2022-08-05T08:21:00.126Z,4.53
2022-08-05T08:21:25.604Z,4.61
2022-08-05T08:22:27.041Z,4.67
2022-08-05T08:24:01.968Z,4.69
2022-08-05T08:24:34.723Z,4.79
2022-08-05T08:25:27.140Z,4.82
2022-08-05T08:26:29.745Z,4.97
2022-08-05T08:27:40.186Z,5.07
2022-08-05T08:28:36.410Z,5.21
2022-08-05T08:30:03.398Z,5.21
2022-08-05T08:30:33.935Z,4.54
2022-08-05T08:31:26.973Z,4.15
2022-08-05T08:32:28.172Z,3.91
2022-08-05T08:33:25.636Z,4.38
2022-08-05T08:34:30.671Z,3.64
2022-08-05T08:35:26.730Z,3.57
2022-08-05T08:36:38.364Z,3.41
2022-08-05T08:37:28.018Z,3.13
2022-08-05T08:38:35.706Z,2.68
2022-08-05T08:39:25.691Z,2.88
2022-08-05T08:40:25.664Z,3.53
2022-08-05T08:41:26.222Z,3.43
2022-08-05T08:42:33.860Z,3.26
2022-08-05T08:45:17.094Z,3.86
2022-08-05T08:45:21.058Z,3.36
2022-08-05T08:45:27.257Z,3.83
2022-08-05T08:46:26.015Z,3.38
2022-08-05T08:48:06.054Z,3.53
2022-08-05T08:49:03.044Z,4.51
2022-08-05T08:50:22.384Z,4.51
2022-08-05T08:50:46.424Z,4.19
2022-08-05T08:52:03.623Z,3.25
2022-08-05T08:52:25.801Z,3.89
2022-08-05T08:53:25.641Z,2.87
2022-08-05T08:54:27.377Z,2.66
2022-08-05T08:56:02.421Z,2.81
2022-08-05T08:56:27.065Z,2.89
2022-08-05T08:57:25.658Z,3.19
2022-08-05T08:58:37.033Z,3.3
2022-08-05T08:59:27.908Z,3.78
2022-08-05T09:00:25.704Z,4.45
2022-08-05T09:01:25.778Z,4.91
2022-08-05T09:02:26.925Z,4.64
2022-08-05T09:03:25.643Z,3.26
2022-08-05T09:04:30.484Z,4.48
2022-08-05T09:05:39.038Z,4.78
2022-08-05T09:06:28.025Z,3.77
2022-08-05T09:07:28.974Z,3.81
2022-08-05T09:08:27.329Z,3.16
2022-08-05T09:09:26.021Z,2.72
2022-08-05T09:10:27.724Z,2.57
2022-08-05T09:11:51.276Z,2.63
2022-08-05T09:12:27.424Z,2.73
2022-08-05T09:13:25.647Z,2.45
2022-08-05T09:14:57.338Z,2.29
2022-08-05T09:15:25.653Z,2.3
2022-08-05T09:16:26.894Z,2.2
2022-08-05T09:17:40.441Z,2.09
2022-08-05T09:18:25.647Z,2.08
2022-08-05T09:19:27.828Z,2.08
2022-08-05T09:20:37.290Z,2.12
2022-08-05T09:22:22.079Z,2.21
2022-08-05T09:22:31.954Z,2.36
2022-08-05T09:23:28.758Z,2.14
2022-08-05T09:24:25.639Z,2.06
2022-08-05T09:26:02.612Z,2.04
2022-08-05T09:26:25.657Z,2.05
2022-08-05T09:28:05.811Z,1.96
2022-08-05T09:28:31.842Z,1.99
2022-08-05T09:29:30.976Z,2.13
2022-08-05T09:30:25.661Z,2.39
2022-08-05T09:32:39.942Z,2.48
2022-08-05T09:32:40.811Z,2.58
2022-08-05T09:33:35.162Z,2.59
2022-08-05T09:34:26.166Z,2.57
2022-08-05T09:35:26.715Z,2.58
2022-08-05T09:36:27.566Z,3.21
2022-08-05T09:38:12.055Z,3.14
2022-08-05T09:38:27.516Z,2.92
2022-08-05T09:39:27.547Z,2.95
2022-08-05T09:40:25.747Z,3.21
2022-08-05T09:41:25.644Z,3.18
2022-08-05T09:42:28.136Z,3.52
2022-08-05T09:43:25.635Z,3.86
2022-08-05T09:44:25.637Z,4.06
2022-08-05T09:46:06.907Z,3.99
2022-08-05T09:46:27.427Z,4.98
2022-08-05T09:47:25.647Z,5.09
2022-08-05T09:48:26.986Z,4.74
2022-08-05T09:49:40.483Z,4.74
2022-08-05T09:50:38.546Z,5.38
2022-08-05T09:51:25.648Z,5.64
2022-08-05T09:52:26.053Z,6.1
2022-08-05T09:53:26.149Z,6.28
2022-08-05T09:54:28.985Z,5.98
2022-08-05T09:55:56.261Z,6.5
2022-08-05T09:56:25.642Z,6.03
2022-08-05T09:57:25.634Z,6.74
2022-08-05T09:58:25.721Z,7.36
2022-08-05T09:59:27.588Z,7.41
2022-08-05T10:00:25.662Z,7.46
2022-08-05T10:01:32.358Z,7.5
2022-08-05T10:02:25.969Z,7.35
2022-08-05T10:03:25.657Z,7.39
2022-08-05T10:04:28.548Z,4.21
2022-08-05T10:05:26.852Z,4.39
2022-08-05T10:06:25.658Z,6.15
2022-08-05T10:07:50.357Z,7.51
2022-08-05T10:08:36.217Z,7.43
2022-08-05T10:09:28.304Z,7.55
2022-08-05T10:10:28.039Z,7.5
2022-08-05T10:11:31.352Z,7.65
2022-08-05T10:16:25.705Z,7.64
2022-08-05T10:17:37.908Z,7.62
2022-08-05T10:18:25.630Z,7.56
2022-08-05T10:20:02.935Z,7.41
2022-08-05T10:20:25.636Z,7.47
2022-08-05T10:21:25.647Z,7.53
2022-08-05T10:22:30.365Z,7.51
2022-08-05T10:23:56.195Z,7.63
2022-08-05T10:24:26.985Z,7.64
2022-08-05T10:25:25.642Z,7.62
2022-08-05T10:26:32.531Z,7.6
2022-08-05T10:27:26.247Z,7.6
2022-08-05T10:28:29.135Z,7.62
2022-08-05T10:30:06.893Z,7.71
2022-08-05T10:31:20.849Z,7.85
2022-08-05T10:32:52.276Z,7.8
2022-08-05T10:32:52.808Z,7.88
2022-08-05T10:33:25.660Z,7.76
2022-08-05T10:34:30.046Z,7.7
2022-08-05T10:35:33.909Z,7.72
2022-08-05T10:36:26.094Z,7.7
2022-08-05T10:37:26.669Z,7.67
2022-08-05T10:38:25.639Z,7.65
2022-08-05T10:40:03.889Z,7.66
2022-08-05T10:40:27.907Z,7.61
2022-08-05T10:41:25.651Z,7.61
2022-08-05T10:42:34.004Z,7.48
2022-08-05T10:43:35.583Z,7.54
2022-08-05T10:44:25.639Z,7.59
2022-08-05T10:45:39.689Z,7.51
2022-08-05T10:46:25.653Z,7.43
2022-08-05T10:47:26.289Z,7.45
2022-08-05T10:48:31.127Z,7.46
2022-08-05T10:49:26.859Z,7.46
2022-08-05T10:50:36.132Z,7.51
2022-08-05T10:51:28.513Z,7.55
2022-08-05T10:52:25.806Z,7.45
2022-08-05T10:53:25.647Z,7.43
2022-08-05T10:54:29.831Z,7.45
2022-08-05T10:55:25.641Z,7.4
2022-08-05T10:56:26.153Z,7.33
2022-08-05T10:57:25.637Z,7.26
2022-08-05T10:58:47.753Z,7.28
2022-08-05T11:00:03.307Z,7.31
2022-08-05T11:00:25.634Z,7.36
2022-08-05T11:01:28.283Z,7.32
2022-08-05T11:02:34.907Z,7.3
2022-08-05T11:03:26.998Z,7.2
2022-08-05T11:04:26.325Z,7.21
2022-08-05T11:05:29.112Z,7.19
2022-08-05T11:06:31.130Z,7.26
2022-08-05T11:07:33.065Z,7.29
2022-08-05T11:08:36.999Z,7.32
2022-08-05T11:09:39.206Z,7.31
2022-08-05T11:10:27.487Z,7.24
2022-08-05T11:11:41.951Z,7.24
2022-08-05T11:12:25.958Z,7.21
2022-08-05T11:13:25.639Z,7.17
2022-08-05T11:14:42.772Z,7.13
2022-08-05T11:15:44.044Z,7.13
2022-08-05T11:16:47.920Z,7.16
2022-08-05T11:17:59.953Z,7.25
2022-08-05T11:18:25.659Z,7.41
2022-08-05T11:20:10.225Z,7.4
2022-08-05T11:20:25.656Z,7.54
2022-08-05T11:21:25.660Z,7.8
2022-08-05T11:22:25.652Z,7.91
2022-08-05T11:23:25.645Z,6.88
2022-08-05T11:24:30.199Z,5.78
2022-08-05T11:26:05.897Z,6.01
2022-08-05T11:26:28.151Z,4.85
2022-08-05T11:27:25.825Z,4.65
2022-08-05T11:28:25.658Z,7.22
2022-08-05T11:29:25.685Z,6.43
2022-08-05T11:30:25.904Z,7.92
2022-08-05T11:31:57.453Z,8.01
2022-08-05T11:32:25.633Z,7.19
2022-08-05T11:33:25.637Z,6.45
2022-08-05T11:34:26.274Z,6.11
2022-08-05T11:35:26.232Z,6.57
2022-08-05T11:36:34.060Z,5.54
2022-08-05T11:38:29.693Z,4.79
2022-08-05T11:38:30.971Z,5.4
2022-08-05T11:39:25.656Z,5.43
2022-08-05T11:40:25.635Z,6.29
2022-08-05T11:41:54.366Z,5.68
2022-08-05T11:42:28.151Z,7.54
2022-08-05T11:44:01.004Z,7.6
2022-08-05T11:44:53.410Z,7.22
2022-08-05T11:46:14.699Z,7.39
2022-08-05T11:46:32.359Z,7.2
2022-08-05T11:47:49.446Z,6.96
2022-08-05T11:48:25.639Z,6.93
2022-08-05T11:49:25.634Z,6.93
2022-08-05T11:50:25.634Z,6.82
2022-08-05T11:51:44.002Z,6.77
2022-08-05T11:52:29.281Z,6.81
2022-08-05T11:53:25.634Z,6.82
2022-08-05T11:54:33.674Z,6.79
2022-08-05T11:55:32.313Z,6.76
2022-08-05T12:00:25.647Z,7.28
2022-08-05T12:01:25.657Z,7.49
2022-08-05T12:02:31.341Z,5.38
2022-08-05T12:03:31.320Z,5.18
2022-08-05T12:04:25.637Z,3.82
2022-08-05T12:05:36.417Z,3.52
2022-08-05T12:06:25.644Z,3.27
2022-08-05T12:08:02.619Z,3.04
2022-08-05T12:08:25.633Z,4.17
2022-08-05T12:09:52.830Z,5.63
2022-08-05T12:10:43.129Z,5.75
2022-08-05T12:11:28.280Z,7.48
2022-08-05T12:12:25.759Z,7.37
2022-08-05T12:13:47.749Z,7.29
2022-08-05T12:14:25.651Z,7.16
2022-08-05T12:15:37.895Z,6.92
2022-08-05T12:16:27.135Z,6.87
2022-08-05T12:18:02.721Z,6.88
2022-08-05T12:18:29.570Z,6.84
2022-08-05T12:20:27.120Z,6.76
2022-08-05T12:20:33.327Z,6.57
2022-08-05T12:21:26.994Z,6.53
2022-08-05T12:22:25.657Z,6.5
2022-08-05T12:23:25.637Z,6.4
2022-08-05T12:24:25.641Z,5.23
2022-08-05T12:25:28.427Z,6.37
2022-08-05T12:26:25.637Z,6.61
2022-08-05T12:27:25.737Z,6.78
2022-08-05T12:28:25.646Z,6.7
2022-08-05T12:29:25.637Z,6.55
2022-08-05T12:30:32.235Z,6.49
2022-08-05T12:31:33.718Z,6.15
2022-08-05T12:32:25.623Z,6.06
2022-08-05T12:33:27.595Z,5.87
2022-08-05T12:34:25.923Z,5.74
2022-08-05T12:35:39.748Z,5.62
2022-08-05T12:36:25.746Z,5.53
2022-08-05T12:37:29.983Z,5.6
2022-08-05T12:38:30.217Z,5.03
2022-08-05T12:39:34.322Z,3.87
2022-08-05T12:40:26.866Z,2.13
2022-08-05T12:41:25.644Z,1.98
2022-08-05T12:42:25.637Z,1.93
2022-08-05T12:43:25.635Z,2.53
2022-08-05T12:44:33.275Z,2.81
2022-08-05T12:45:42.477Z,3.38
2022-08-05T12:46:29.799Z,4.62
2022-08-05T12:47:25.897Z,6.25
2022-08-05T12:48:27.494Z,6.92
2022-08-05T12:49:25.727Z,6.92
2022-08-05T12:50:25.632Z,4.06
2022-08-05T12:52:12.832Z,4.26
2022-08-05T12:52:29.562Z,7.19
2022-08-05T12:53:25.636Z,10.3
2022-08-05T12:54:26.505Z,10.75
2022-08-05T12:55:26.352Z,10.54
2022-08-05T12:56:34.918Z,10.67
2022-08-05T12:57:25.809Z,9.67
2022-08-05T12:58:48.882Z,9.07
2022-08-05T12:59:27.603Z,9.16
2022-08-05T13:02:00.417Z,7.35
2022-08-05T13:02:01.082Z,5.35
2022-08-05T13:02:30.310Z,4.98
2022-08-05T13:03:25.653Z,3.77
2022-08-05T13:04:25.633Z,2.63
2022-08-05T13:05:25.632Z,2.77
2022-08-05T13:06:25.635Z,3.25
2022-08-05T13:07:55.008Z,3.04
2022-08-05T13:08:26.970Z,3.72
2022-08-05T13:09:27.857Z,3.72
2022-08-05T13:10:25.632Z,3.94
2022-08-05T13:12:02.315Z,3.13
2022-08-05T13:12:28.409Z,7.13
2022-08-05T13:14:04.667Z,6.51
2022-08-05T13:14:36.107Z,6.78
2022-08-05T13:15:35.915Z,7.25
2022-08-05T13:16:27.704Z,7.25
2022-08-05T13:17:31.603Z,7.65
2022-08-05T13:18:25.630Z,7.72
2022-08-05T13:19:25.652Z,7.47
2022-08-05T13:20:29.162Z,7.82
2022-08-05T13:21:28.219Z,7.26
2022-08-05T13:22:28.338Z,7.26
2022-08-05T13:23:25.630Z,7.6
2022-08-05T13:24:27.599Z,7.69
2022-08-05T13:25:52.172Z,6.9
2022-08-05T13:26:30.127Z,6.92
2022-08-05T13:27:37.288Z,7.13
2022-08-05T13:28:25.629Z,7.53
2022-08-05T13:29:37.747Z,7.24
2022-08-05T13:30:32.720Z,6.96
2022-08-05T13:32:03.403Z,6.86
2022-08-05T13:32:29.285Z,7.18
2022-08-05T13:34:24.989Z,7.09
2022-08-05T13:34:26.340Z,7.03
2022-08-05T13:35:31.397Z,7.02
2022-08-05T13:36:25.637Z,7.08
2022-08-05T13:37:27.239Z,7.18
2022-08-05T13:38:30.837Z,6.99
2022-08-05T13:40:13.704Z,6.61
2022-08-05T13:40:47.956Z,7.05
2022-08-05T13:41:25.771Z,7.03
2022-08-05T13:42:25.629Z,6.22
2022-08-05T13:43:45.304Z,6.22
2022-08-05T13:44:25.628Z,5.82
2022-08-05T13:45:31.007Z,5.89
2022-08-05T13:46:43.704Z,3.19
2022-08-05T13:47:35.029Z,7.56
2022-08-05T13:48:57.169Z,5.76
2022-08-05T13:49:25.633Z,6.67
2022-08-05T13:50:25.671Z,6.84